Time;durP1;ratioP1;P1;durP2;ratioP2;P2;SDS_P1;SDS_P2;PMS_P1;PMS_P2;Temp;Humidity;BMP_temperature;BMP_pressure;BME280_temperature;BME280_humidity;BME280_pressure;Samples;Min_cycle;Max_cycle;Signal;HPM_P1;HPM_P2
2022/05/04 00:00:13;;;;;;;0.00;0.00;;;;;;;;;;5026512;28;20033;-59
2022/05/04 00:02:39;;;;;;;0.00;0.00;;;;;;;;;;5026930;28;20040;-59
2022/05/04 00:05:04;;;;;;;1.75;0.30;;;;;;;;;;5027341;28;20041;-59
2022/05/04 00:07:30;;;;;;;0.00;0.00;;;;;;;;;;5028255;28;20521;-59
2022/05/04 00:09:57;;;;;;;0.00;0.00;;;;;;;;;;5030339;28;20433;-59
2022/05/04 00:12:22;;;;;;;0.00;0.00;;;;;;;;;;5029359;28;20064;-58
2022/05/04 00:14:47;;;;;;;2.63;1.48;;;;;;;;;;5030558;28;20029;-58
2022/05/04 00:17:12;;;;;;;0.63;0.63;;;;;;;;;;5027983;28;20021;-58
2022/05/04 00:19:38;;;;;;;0.00;0.00;;;;;;;;;;5026307;28;20032;-58
2022/05/04 00:22:03;;;;;;;0.00;0.00;;;;;;;;;;5030769;28;20422;-58
2022/05/04 00:24:28;;;;;;;0.00;0.00;;;;;;;;;;5030153;28;20371;-59
2022/05/04 00:26:53;;;;;;;0.00;0.00;;;;;;;;;;5012739;28;20025;-59
2022/05/04 00:29:19;;;;;;;0.00;0.00;;;;;;;;;;5030257;28;20470;-59
2022/05/04 00:31:44;;;;;;;0.00;0.00;;;;;;;;;;5032371;28;20120;-58
2022/05/04 00:34:09;;;;;;;1.83;1.77;;;;;;;;;;5027710;28;20054;-58
2022/05/04 00:36:34;;;;;;;1.13;0.47;;;;;;;;;;5018537;28;20100;-58
2022/05/04 00:38:59;;;;;;;0.98;0.98;;;;;;;;;;5017138;28;20315;-57
2022/05/04 00:41:25;;;;;;;0.20;0.20;;;;;;;;;;5029505;28;20080;-57
2022/05/04 00:43:54;;;;;;;0.00;0.00;;;;;;;;;;5030398;28;20482;-57
2022/05/04 00:46:22;;;;;;;0.28;0.28;;;;;;;;;;5026485;28;20032;-58
2022/05/04 00:48:48;;;;;;;1.20;0.43;;;;;;;;;;5030360;28;20411;-58
2022/05/04 00:51:13;;;;;;;0.05;0.05;;;;;;;;;;5029055;28;20032;-58
2022/05/04 00:53:40;;;;;;;0.55;0.55;;;;;;;;;;5033422;28;20017;-58
2022/05/04 00:56:06;;;;;;;0.63;0.63;;;;;;;;;;5032050;28;20018;-59
2022/05/04 01:01:16;;;;;;;0.13;0.13;;;;;;;;;;5033093;28;20636;-58
2022/05/04 01:03:41;;;;;;;0.00;0.00;;;;;;;;;;5032007;28;20029;-59
2022/05/04 01:06:06;;;;;;;0.00;0.00;;;;;;;;;;5033670;28;20036;-58
2022/05/04 01:08:32;;;;;;;0.70;0.63;;;;;;;;;;5032925;28;20600;-59
2022/05/04 01:10:57;;;;;;;0.57;0.57;;;;;;;;;;5032953;28;20089;-59
2022/05/04 01:13:22;;;;;;;0.40;0.40;;;;;;;;;;5033763;28;20099;-58
2022/05/04 01:15:48;;;;;;;0.00;0.00;;;;;;;;;;5030770;28;20164;-57
2022/05/04 01:18:13;;;;;;;1.15;1.15;;;;;;;;;;5031793;28;20025;-58
2022/05/04 01:20:38;;;;;;;0.63;0.52;;;;;;;;;;5035202;28;20021;-59
2022/05/04 01:23:08;;;;;;;0.00;0.00;;;;;;;;;;5031691;28;20053;-59
2022/05/04 01:25:34;;;;;;;1.35;1.33;;;;;;;;;;5031226;28;20022;-58
2022/05/04 01:28:00;;;;;;;0.73;0.73;;;;;;;;;;5032512;28;20022;-59
2022/05/04 01:30:25;;;;;;;0.00;0.00;;;;;;;;;;5034389;28;20025;-59
2022/05/04 01:32:54;;;;;;;1.73;1.50;;;;;;;;;;5018647;28;20505;-60
2022/05/04 01:35:19;;;;;;;0.00;0.00;;;;;;;;;;5012672;28;20349;-57
2022/05/04 01:37:44;;;;;;;0.95;0.30;;;;;;;;;;5012068;28;20028;-59
2022/05/04 01:40:10;;;;;;;0.82;0.80;;;;;;;;;;5012161;28;20022;-58
2022/05/04 01:42:35;;;;;;;0.88;0.88;;;;;;;;;;5011901;28;20041;-57
2022/05/04 01:45:00;;;;;;;1.13;0.90;;;;;;;;;;5011546;28;20046;-59
2022/05/04 01:47:25;;;;;;;0.10;0.00;;;;;;;;;;5011778;28;20041;-59
2022/05/04 01:49:51;;;;;;;0.43;0.28;;;;;;;;;;5012193;28;20029;-58
2022/05/04 01:52:16;;;;;;;0.13;0.13;;;;;;;;;;5012525;28;20395;-59
2022/05/04 01:54:41;;;;;;;0.75;0.75;;;;;;;;;;5012533;28;20414;-59
2022/05/04 01:57:06;;;;;;;0.00;0.00;;;;;;;;;;5012852;28;20029;-59
2022/05/04 01:59:32;;;;;;;0.32;0.32;;;;;;;;;;5011531;28;20933;-58
2022/05/04 02:01:57;;;;;;;1.02;1.02;;;;;;;;;;5012641;28;20108;-59
2022/05/04 02:04:23;;;;;;;0.75;0.70;;;;;;;;;;5011891;28;20038;-59
2022/05/04 02:06:48;;;;;;;5.57;1.50;;;;;;;;;;5011571;28;20025;-59
2022/05/04 02:09:13;;;;;;;0.65;0.40;;;;;;;;;;5011273;28;20071;-58
2022/05/04 02:11:39;;;;;;;0.82;0.82;;;;;;;;;;5012441;28;20100;-55
2022/05/04 02:14:05;;;;;;;0.00;0.00;;;;;;;;;;5012257;28;20057;-56
2022/05/04 02:16:30;;;;;;;0.22;0.22;;;;;;;;;;5011314;28;20029;-56
2022/05/04 02:18:56;;;;;;;0.13;0.13;;;;;;;;;;5010670;28;20025;-57
2022/05/04 02:21:21;;;;;;;0.00;0.00;;;;;;;;;;5010586;28;20029;-56
2022/05/04 02:23:46;;;;;;;0.00;0.00;;;;;;;;;;5011761;28;20030;-56
2022/05/04 02:26:11;;;;;;;0.00;0.00;;;;;;;;;;5011361;28;20688;-56
2022/05/04 02:28:37;;;;;;;0.00;0.00;;;;;;;;;;5012123;28;20041;-56
2022/05/04 02:31:04;;;;;;;0.00;0.00;;;;;;;;;;5011768;28;20482;-56
2022/05/04 02:33:30;;;;;;;0.00;0.00;;;;;;;;;;5028718;28;20050;-56
2022/05/04 02:38:39;;;;;;;0.00;0.00;;;;;;;;;;5031130;28;20382;-55
2022/05/04 02:41:04;;;;;;;0.00;0.00;;;;;;;;;;5031611;28;20025;-56
2022/05/04 02:43:30;;;;;;;0.00;0.00;;;;;;;;;;5030813;28;20531;-57
2022/05/04 02:45:55;;;;;;;0.05;0.05;;;;;;;;;;5031266;28;20041;-56
2022/05/04 02:48:21;;;;;;;0.00;0.00;;;;;;;;;;5031013;28;20466;-56
2022/05/04 02:50:47;;;;;;;0.95;0.68;;;;;;;;;;5030477;28;20048;-56
2022/05/04 02:53:12;;;;;;;1.17;0.85;;;;;;;;;;5030393;28;20411;-56
2022/05/04 02:55:38;;;;;;;0.00;0.00;;;;;;;;;;5032510;28;20017;-57
2022/05/04 02:58:03;;;;;;;0.00;0.00;;;;;;;;;;5030928;28;20097;-55
2022/05/04 03:00:28;;;;;;;0.00;0.00;;;;;;;;;;5028067;28;20048;-56
2022/05/04 03:02:54;;;;;;;0.08;0.08;;;;;;;;;;5030997;28;20512;-53
2022/05/04 03:05:23;;;;;;;0.10;0.10;;;;;;;;;;5028526;28;20095;-56
2022/05/04 03:07:48;;;;;;;0.40;0.40;;;;;;;;;;5028979;28;20033;-55
2022/05/04 03:10:14;;;;;;;0.00;0.00;;;;;;;;;;5030318;28;20029;-50
2022/05/04 03:12:39;;;;;;;0.00;0.00;;;;;;;;;;5030000;28;20441;-57
2022/05/04 03:15:05;;;;;;;0.00;0.00;;;;;;;;;;5028829;28;20021;-57
2022/05/04 03:17:31;;;;;;;0.10;0.10;;;;;;;;;;5029394;28;20065;-54
2022/05/04 03:19:58;;;;;;;0.65;0.65;;;;;;;;;;5030255;28;20056;-55
2022/05/04 03:22:23;;;;;;;0.00;0.00;;;;;;;;;;5028969;28;20017;-54
2022/05/04 03:24:49;;;;;;;0.75;0.75;;;;;;;;;;5030275;28;20534;-56
2022/05/04 03:27:14;;;;;;;1.77;1.60;;;;;;;;;;5010846;28;20023;-57
2022/05/04 03:29:39;;;;;;;0.00;0.00;;;;;;;;;;5029338;28;20031;-54
2022/05/04 03:32:05;;;;;;;0.52;0.52;;;;;;;;;;5026599;28;20046;-57
2022/05/04 03:34:30;;;;;;;0.47;0.20;;;;;;;;;;5022123;28;20072;-57
2022/05/04 03:36:58;;;;;;;0.47;0.22;;;;;;;;;;5022037;28;20083;-56
2022/05/04 03:39:24;;;;;;;0.00;0.00;;;;;;;;;;5019330;28;20467;-56
2022/05/04 03:41:49;;;;;;;0.22;0.22;;;;;;;;;;5013122;28;20028;-56
2022/05/04 03:44:16;;;;;;;0.32;0.32;;;;;;;;;;5017748;28;20178;-56
2022/05/04 03:46:44;;;;;;;2.47;1.17;;;;;;;;;;5017342;28;20087;-56
2022/05/04 03:49:09;;;;;;;1.35;1.35;;;;;;;;;;5013799;28;20025;-56
2022/05/04 03:51:34;;;;;;;0.00;0.00;;;;;;;;;;5016254;28;20836;-57
2022/05/04 03:54:00;;;;;;;0.00;0.00;;;;;;;;;;5021203;28;20021;-56
2022/05/04 03:56:25;;;;;;;0.32;0.32;;;;;;;;;;5018018;28;20029;-56
2022/05/04 03:58:50;;;;;;;0.03;0.03;;;;;;;;;;5016965;28;20037;-56
2022/05/04 04:01:17;;;;;;;1.73;1.02;;;;;;;;;;5010474;28;20509;-57
2022/05/04 04:03:42;;;;;;;0.10;0.10;;;;;;;;;;5014396;28;20025;-56
2022/05/04 04:06:07;;;;;;;0.10;0.10;;;;;;;;;;5012313;28;20076;-55
2022/05/04 04:08:33;;;;;;;0.00;0.00;;;;;;;;;;5013879;28;20412;-57
2022/05/04 04:10:58;;;;;;;4.10;2.08;;;;;;;;;;5011883;28;20079;-57
2022/05/04 04:13:24;;;;;;;0.68;0.68;;;;;;;;;;5018611;28;20459;-57
2022/05/04 04:15:52;;;;;;;0.00;0.00;;;;;;;;;;5011625;28;20384;-55
2022/05/04 04:18:18;;;;;;;0.08;0.08;;;;;;;;;;5014504;28;20382;-58
2022/05/04 04:23:27;;;;;;;2.08;1.98;;;;;;;;;;5017400;28;20064;-58
2022/05/04 04:25:53;;;;;;;7.20;4.18;;;;;;;;;;5020767;28;20376;-58
2022/05/04 04:28:18;;;;;;;0.98;0.55;;;;;;;;;;5018688;28;20028;-56
2022/05/04 04:30:43;;;;;;;1.17;0.80;;;;;;;;;;5016929;28;20013;-55
2022/05/04 04:33:08;;;;;;;0.00;0.00;;;;;;;;;;5011731;28;20475;-57
2022/05/04 04:35:34;;;;;;;0.00;0.00;;;;;;;;;;4990707;28;20038;-56
2022/05/04 04:38:00;;;;;;;0.00;0.00;;;;;;;;;;5009044;28;20034;-56
2022/05/04 04:40:25;;;;;;;0.25;0.25;;;;;;;;;;5006359;28;20033;-57
2022/05/04 04:42:50;;;;;;;0.35;0.35;;;;;;;;;;5009221;28;20052;-58
2022/05/04 04:45:17;;;;;;;0.00;0.00;;;;;;;;;;5008155;28;20032;-54
2022/05/04 04:47:44;;;;;;;0.00;0.00;;;;;;;;;;5007592;28;20014;-52
2022/05/04 04:50:09;;;;;;;0.10;0.10;;;;;;;;;;5008141;28;20053;-54
2022/05/04 04:52:34;;;;;;;0.00;0.00;;;;;;;;;;5008229;28;20057;-56
2022/05/04 04:55:00;;;;;;;0.03;0.03;;;;;;;;;;5008328;28;20462;-54
2022/05/04 04:57:27;;;;;;;1.20;1.15;;;;;;;;;;5006961;28;20053;-55
2022/05/04 04:59:52;;;;;;;0.00;0.00;;;;;;;;;;5008542;28;20033;-55
2022/05/04 05:02:17;;;;;;;1.70;1.63;;;;;;;;;;5008863;28;20145;-53
2022/05/04 05:04:43;;;;;;;0.00;0.00;;;;;;;;;;5007405;28;20026;-55
2022/05/04 05:07:08;;;;;;;2.15;1.95;;;;;;;;;;5007828;28;20033;-51
2022/05/04 05:09:33;;;;;;;0.10;0.10;;;;;;;;;;5007678;28;20026;-56
2022/05/04 05:11:58;;;;;;;0.00;0.00;;;;;;;;;;5008423;28;20451;-54
2022/05/04 05:17:07;;;;;;;0.20;0.20;;;;;;;;;;5006185;28;20068;-54
2022/05/04 05:19:33;;;;;;;0.10;0.10;;;;;;;;;;5008153;28;20041;-53
2022/05/04 05:21:58;;;;;;;0.00;0.00;;;;;;;;;;5007831;28;20038;-55
2022/05/04 05:24:23;;;;;;;0.52;0.52;;;;;;;;;;5006513;28;20026;-55
2022/05/04 05:26:48;;;;;;;0.68;0.68;;;;;;;;;;5007687;28;20558;-53
2022/05/04 05:29:13;;;;;;;6.72;1.55;;;;;;;;;;5008392;28;20156;-55
2022/05/04 05:31:38;;;;;;;0.00;0.00;;;;;;;;;;5009511;28;20256;-55
2022/05/04 05:34:04;;;;;;;0.30;0.30;;;;;;;;;;5015598;28;20022;-55
2022/05/04 05:36:29;;;;;;;0.00;0.00;;;;;;;;;;5012784;28;20029;-54
2022/05/04 05:38:54;;;;;;;0.00;0.00;;;;;;;;;;5019231;28;20212;-54
2022/05/04 05:41:23;;;;;;;0.40;0.30;;;;;;;;;;5019660;28;20504;-56
2022/05/04 05:43:48;;;;;;;0.00;0.00;;;;;;;;;;5017917;28;20099;-51
2022/05/04 05:46:13;;;;;;;1.58;1.48;;;;;;;;;;5021887;28;20076;-52
2022/05/04 05:48:38;;;;;;;2.28;1.88;;;;;;;;;;5012746;28;21793;-53
2022/05/04 05:51:05;;;;;;;0.63;0.63;;;;;;;;;;5024342;28;20018;-52
2022/05/04 05:53:30;;;;;;;0.00;0.00;;;;;;;;;;5000303;28;20024;-52
2022/05/04 05:55:55;;;;;;;0.05;0.05;;;;;;;;;;5012058;28;20386;-52
2022/05/04 05:58:21;;;;;;;0.00;0.00;;;;;;;;;;5021960;28;20096;-54
2022/05/04 06:00:46;;;;;;;0.75;0.75;;;;;;;;;;5023667;28;20101;-53
2022/05/04 06:03:13;;;;;;;0.45;0.45;;;;;;;;;;5017147;28;20057;-54
2022/05/04 06:05:38;;;;;;;0.00;0.00;;;;;;;;;;5019195;28;20080;-55
2022/05/04 06:08:03;;;;;;;0.00;0.00;;;;;;;;;;5019973;28;20025;-54
2022/05/04 06:10:29;;;;;;;1.52;1.42;;;;;;;;;;5018290;28;20025;-54
2022/05/04 06:12:54;;;;;;;0.00;0.00;;;;;;;;;;5017460;28;20058;-53
2022/05/04 06:15:19;;;;;;;0.00;0.00;;;;;;;;;;5019122;28;20449;-50
2022/05/04 06:17:46;;;;;;;1.17;1.17;;;;;;;;;;5015825;28;20057;-52
2022/05/04 06:20:11;;;;;;;0.93;0.93;;;;;;;;;;5014143;28;20037;-52
2022/05/04 06:22:37;;;;;;;3.80;1.90;;;;;;;;;;5012702;28;20129;-52
2022/05/04 06:25:02;;;;;;;3.33;3.10;;;;;;;;;;5013429;28;20029;-51
2022/05/04 06:27:32;;;;;;;0.00;0.00;;;;;;;;;;5017043;28;20053;-53
2022/05/04 06:35:25;;;;;;;5.88;2.55;;;;;;;;;;5009987;28;20041;-53
2022/05/04 06:37:50;;;;;;;0.00;0.00;;;;;;;;;;5009389;28;20037;-54
2022/05/04 06:40:15;;;;;;;0.57;0.45;;;;;;;;;;5010591;28;20022;-55
2022/05/04 06:42:41;;;;;;;0.20;0.20;;;;;;;;;;5009747;28;20048;-53
2022/05/04 06:45:06;;;;;;;0.15;0.10;;;;;;;;;;5008649;28;20483;-53
2022/05/04 06:47:31;;;;;;;0.00;0.00;;;;;;;;;;5009021;28;20014;-53
2022/05/04 06:49:57;;;;;;;0.00;0.00;;;;;;;;;;5011194;28;20026;-53
2022/05/04 06:52:24;;;;;;;0.82;0.82;;;;;;;;;;5011519;28;20014;-53
2022/05/04 06:54:49;;;;;;;0.00;0.00;;;;;;;;;;5008978;28;20073;-56
2022/05/04 06:57:15;;;;;;;0.35;0.30;;;;;;;;;;5011926;28;20017;-51
2022/05/04 06:59:40;;;;;;;0.00;0.00;;;;;;;;;;5008993;28;20032;-54
2022/05/04 07:02:05;;;;;;;1.30;1.20;;;;;;;;;;5008435;28;20449;-53
2022/05/04 07:04:31;;;;;;;0.63;0.22;;;;;;;;;;5006271;28;20034;-55
2022/05/04 07:06:58;;;;;;;0.00;0.00;;;;;;;;;;4987823;28;20494;-55
2022/05/04 07:09:23;;;;;;;0.00;0.00;;;;;;;;;;5001604;28;20017;-54
2022/05/04 07:11:48;;;;;;;0.10;0.10;;;;;;;;;;5008530;28;20041;-53
2022/05/04 07:14:14;;;;;;;0.10;0.10;;;;;;;;;;5009734;28;20021;-55
2022/05/04 07:16:40;;;;;;;0.00;0.00;;;;;;;;;;5009590;28;20033;-55
2022/05/04 07:19:05;;;;;;;0.98;0.98;;;;;;;;;;5009060;28;20105;-54
2022/05/04 07:21:30;;;;;;;0.00;0.00;;;;;;;;;;5009378;28;20077;-54
2022/05/04 07:23:56;;;;;;;0.00;0.00;;;;;;;;;;5007720;28;20037;-55
2022/05/04 07:26:24;;;;;;;1.08;0.52;;;;;;;;;;5008727;28;20450;-54
2022/05/04 07:28:49;;;;;;;1.35;1.25;;;;;;;;;;5010011;28;20017;-56
2022/05/04 07:31:14;;;;;;;1.75;1.00;;;;;;;;;;5009497;28;20018;-55
2022/05/04 07:33:42;;;;;;;0.40;0.40;;;;;;;;;;5026833;28;20041;-53
2022/05/04 07:36:08;;;;;;;0.32;0.32;;;;;;;;;;5028683;28;20394;-54
2022/05/04 07:38:33;;;;;;;0.60;0.60;;;;;;;;;;5026921;28;20028;-53
2022/05/04 07:43:42;;;;;;;0.00;0.00;;;;;;;;;;5028472;28;20036;-53
2022/05/04 07:46:07;;;;;;;1.55;1.48;;;;;;;;;;5023770;28;20021;-56
2022/05/04 07:48:32;;;;;;;0.10;0.10;;;;;;;;;;5028644;28;20045;-55
2022/05/04 07:50:58;;;;;;;0.57;0.43;;;;;;;;;;5025217;28;20466;-53
2022/05/04 07:53:23;;;;;;;0.00;0.00;;;;;;;;;;5026225;28;20021;-50
2022/05/04 07:55:48;;;;;;;2.38;2.25;;;;;;;;;;5028447;28;20021;-53
2022/05/04 07:58:13;;;;;;;11.02;2.55;;;;;;;;;;5029288;28;20021;-52
2022/05/04 08:06:06;;;;;;;1.83;1.67;;;;;;;;;;5028232;28;20092;-50
2022/05/04 08:08:31;;;;;;;0.00;0.00;;;;;;;;;;5027243;28;20022;-50
2022/05/04 08:10:57;;;;;;;0.00;0.00;;;;;;;;;;5029687;28;20025;-55
2022/05/04 08:13:22;;;;;;;4.97;4.53;;;;;;;;;;5027855;28;20699;-52
2022/05/04 08:15:48;;;;;;;0.03;0.03;;;;;;;;;;5026621;28;20033;-53
2022/05/04 08:18:13;;;;;;;0.95;0.82;;;;;;;;;;5027931;28;20076;-53
2022/05/04 08:20:39;;;;;;;1.98;1.35;;;;;;;;;;5028911;28;20029;-53
2022/05/04 08:23:04;;;;;;;1.27;0.85;;;;;;;;;;5027418;28;20022;-51
2022/05/04 08:25:50;;;;;;;0.00;0.00;;;;;;;;;;5028762;28;20072;-50
2022/05/04 08:28:15;;;;;;;0.30;0.30;;;;;;;;;;5018004;28;20508;-52
2022/05/04 08:30:40;;;;;;;0.80;0.70;;;;;;;;;;5027028;28;20029;-52
2022/05/04 08:33:09;;;;;;;0.00;0.00;;;;;;;;;;5010615;28;20156;-51
2022/05/04 08:35:34;;;;;;;1.35;1.02;;;;;;;;;;5027679;28;20446;-52
2022/05/04 08:37:59;;;;;;;0.30;0.30;;;;;;;;;;5027263;28;20064;-51
2022/05/04 08:40:24;;;;;;;0.22;0.22;;;;;;;;;;5010864;28;20033;-53
2022/05/04 08:42:51;;;;;;;0.00;0.00;;;;;;;;;;5028860;28;20044;-51
2022/05/04 08:45:16;;;;;;;1.25;0.60;;;;;;;;;;5026622;28;20462;-54
2022/05/04 08:47:44;;;;;;;0.00;0.00;;;;;;;;;;5028221;28;20079;-55
2022/05/04 08:50:12;;;;;;;0.00;0.00;;;;;;;;;;5027225;28;20052;-55
2022/05/04 08:52:40;;;;;;;0.00;0.00;;;;;;;;;;5028657;28;20386;-53
2022/05/04 08:55:10;;;;;;;1.33;1.23;;;;;;;;;;5027842;28;20021;-53
2022/05/04 08:57:36;;;;;;;0.47;0.47;;;;;;;;;;5027256;28;20067;-54
2022/05/04 09:00:01;;;;;;;0.57;0.57;;;;;;;;;;5029196;28;20530;-56
2022/05/04 09:02:26;;;;;;;0.20;0.20;;;;;;;;;;5028324;28;20030;-55
2022/05/04 09:04:51;;;;;;;0.00;0.00;;;;;;;;;;5028672;28;20109;-56
2022/05/04 09:07:23;;;;;;;0.05;0.05;;;;;;;;;;5026545;28;20029;-57
2022/05/04 09:09:48;;;;;;;0.00;0.00;;;;;;;;;;5022632;28;20152;-58
2022/05/04 09:12:14;;;;;;;0.08;0.08;;;;;;;;;;5026467;28;20116;-58
2022/05/04 09:14:40;;;;;;;5.40;5.10;;;;;;;;;;5028973;28;20021;-56
2022/05/04 09:17:08;;;;;;;1.30;1.30;;;;;;;;;;5032052;28;20112;-58
2022/05/04 09:19:33;;;;;;;0.00;0.00;;;;;;;;;;5028935;28;20045;-58
2022/05/04 09:21:59;;;;;;;0.00;0.00;;;;;;;;;;5029822;28;20034;-58
2022/05/04 09:24:28;;;;;;;0.00;0.00;;;;;;;;;;5030788;28;20462;-57
2022/05/04 09:26:54;;;;;;;0.17;0.17;;;;;;;;;;5030992;28;20064;-55
2022/05/04 09:29:20;;;;;;;0.00;0.00;;;;;;;;;;5031294;28;20030;-57
2022/05/04 09:31:46;;;;;;;0.52;0.15;;;;;;;;;;5030813;28;20048;-56
2022/05/04 09:34:11;;;;;;;0.98;0.98;;;;;;;;;;5032150;28;20033;-56
2022/05/04 09:36:36;;;;;;;0.50;0.50;;;;;;;;;;5030445;28;20064;-58
2022/05/04 09:45:06;;;;;;;0.28;0.28;;;;;;;;;;5031824;28;20036;-56
2022/05/04 09:47:31;;;;;;;0.80;0.77;;;;;;;;;;5031187;28;20049;-56
2022/05/04 09:50:02;;;;;;;0.00;0.00;;;;;;;;;;5028996;28;20026;-56
2022/05/04 09:52:28;;;;;;;0.00;0.00;;;;;;;;;;5031120;28;20013;-57
2022/05/04 09:54:54;;;;;;;0.75;0.75;;;;;;;;;;5027999;28;20035;-57
2022/05/04 09:57:20;;;;;;;0.65;0.65;;;;;;;;;;5030072;28;20028;-57
2022/05/04 09:59:45;;;;;;;0.00;0.00;;;;;;;;;;5030252;28;20545;-57
2022/05/04 10:02:13;;;;;;;0.17;0.17;;;;;;;;;;5030962;28;20058;-57
2022/05/04 10:04:38;;;;;;;0.10;0.10;;;;;;;;;;5030927;28;20034;-58
2022/05/04 10:07:04;;;;;;;0.00;0.00;;;;;;;;;;5029541;28;20024;-57
2022/05/04 10:09:29;;;;;;;0.00;0.00;;;;;;;;;;5030038;28;20049;-57
2022/05/04 10:12:01;;;;;;;0.00;0.00;;;;;;;;;;5030244;28;20112;-56
2022/05/04 10:14:27;;;;;;;0.35;0.22;;;;;;;;;;5030610;28;20039;-56
2022/05/04 10:17:02;;;;;;;0.00;0.00;;;;;;;;;;5013018;28;20685;-56
2022/05/04 10:19:29;;;;;;;1.67;1.58;;;;;;;;;;5028177;28;20471;-56
2022/05/04 10:21:56;;;;;;;0.00;0.00;;;;;;;;;;5031416;28;20084;-54
2022/05/04 10:24:22;;;;;;;2.90;2.67;;;;;;;;;;5031644;28;20357;-54
2022/05/04 10:26:48;;;;;;;0.00;0.00;;;;;;;;;;5029899;28;20026;-54
2022/05/04 10:32:10;;;;;;;0.00;0.00;;;;;;;;;;5029670;28;20056;-54
2022/05/04 10:34:42;;;;;;;0.75;0.75;;;;;;;;;;5030629;28;20025;-53
2022/05/04 10:37:10;;;;;;;1.25;1.10;;;;;;;;;;5028952;28;20020;-54
2022/05/04 10:39:36;;;;;;;0.05;0.05;;;;;;;;;;5027962;28;20032;-55
2022/05/04 10:42:01;;;;;;;0.30;0.30;;;;;;;;;;5030861;28;20041;-53
2022/05/04 10:44:47;;;;;;;0.00;0.00;;;;;;;;;;5032255;28;20414;-55
2022/05/04 10:47:17;;;;;;;1.85;1.15;;;;;;;;;;5016820;28;20498;-54
2022/05/04 10:49:42;;;;;;;3.67;3.40;;;;;;;;;;5029127;28;20044;-53
2022/05/04 10:52:08;;;;;;;0.52;0.52;;;;;;;;;;5030114;28;20026;-55
2022/05/04 10:54:34;;;;;;;0.75;0.75;;;;;;;;;;5022990;28;20036;-53
2022/05/04 10:56:59;;;;;;;4.18;0.70;;;;;;;;;;5029034;28;20035;-57
2022/05/04 10:59:26;;;;;;;1.08;0.43;;;;;;;;;;5030580;28;20017;-55
2022/05/04 11:01:54;;;;;;;0.00;0.00;;;;;;;;;;5028278;28;20489;-53
2022/05/04 11:04:23;;;;;;;0.00;0.00;;;;;;;;;;5030039;28;20485;-56
2022/05/04 11:06:58;;;;;;;0.00;0.00;;;;;;;;;;5030664;28;20160;-57
2022/05/04 11:09:25;;;;;;;0.00;0.00;;;;;;;;;;5024376;28;20029;-49
2022/05/04 11:11:51;;;;;;;0.00;0.00;;;;;;;;;;5002765;28;20427;-55
2022/05/04 11:14:17;;;;;;;0.43;0.43;;;;;;;;;;5025747;28;20407;-54
2022/05/04 11:16:43;;;;;;;2.08;1.98;;;;;;;;;;5028345;28;20021;-54
2022/05/04 11:19:11;;;;;;;0.28;0.28;;;;;;;;;;5030670;28;20052;-55
2022/05/04 11:21:37;;;;;;;0.20;0.20;;;;;;;;;;5029961;28;20032;-55
2022/05/04 11:24:04;;;;;;;0.47;0.47;;;;;;;;;;5029422;28;20104;-51
2022/05/04 11:26:35;;;;;;;0.00;0.00;;;;;;;;;;5028967;28;20455;-54
2022/05/04 11:29:00;;;;;;;0.03;0.03;;;;;;;;;;5030493;28;20017;-55
2022/05/04 11:31:25;;;;;;;0.00;0.00;;;;;;;;;;5029390;28;20033;-56
2022/05/04 11:33:51;;;;;;;0.40;0.40;;;;;;;;;;5031051;28;20068;-57
2022/05/04 11:36:18;;;;;;;0.00;0.00;;;;;;;;;;5029801;28;20382;-56
2022/05/04 11:38:44;;;;;;;1.08;1.00;;;;;;;;;;5029098;28;20370;-53
2022/05/04 11:41:11;;;;;;;0.00;0.00;;;;;;;;;;5028748;28;20559;-52
2022/05/04 11:43:36;;;;;;;0.00;0.00;;;;;;;;;;5029166;28;20055;-58
2022/05/04 11:46:12;;;;;;;0.45;0.45;;;;;;;;;;5012911;28;20061;-56
2022/05/04 11:48:43;;;;;;;0.00;0.00;;;;;;;;;;5027608;28;20083;-58
2022/05/04 11:51:09;;;;;;;0.00;0.00;;;;;;;;;;5030004;28;20076;-56
2022/05/04 11:53:35;;;;;;;0.08;0.08;;;;;;;;;;5028537;28;20029;-58
2022/05/04 11:56:04;;;;;;;0.00;0.00;;;;;;;;;;5029158;28;20025;-54
2022/05/04 11:58:30;;;;;;;1.55;1.45;;;;;;;;;;5027282;28;20017;-56
2022/05/04 12:00:55;;;;;;;0.08;0.08;;;;;;;;;;5026983;28;20114;-57
2022/05/04 12:03:21;;;;;;;0.55;0.55;;;;;;;;;;5029799;28;20064;-57
2022/05/04 12:05:47;;;;;;;0.00;0.00;;;;;;;;;;5027727;28;20474;-57
2022/05/04 12:08:14;;;;;;;0.00;0.00;;;;;;;;;;5028540;28;20025;-57
2022/05/04 12:10:40;;;;;;;0.00;0.00;;;;;;;;;;5028744;28;20033;-56
2022/05/04 12:13:06;;;;;;;0.00;0.00;;;;;;;;;;5028401;28;20053;-55
2022/05/04 12:15:31;;;;;;;0.63;0.63;;;;;;;;;;5029340;28;20049;-57
2022/05/04 12:17:58;;;;;;;0.38;0.38;;;;;;;;;;5029198;28;20339;-54
2022/05/04 12:20:23;;;;;;;0.00;0.00;;;;;;;;;;5028138;28;20084;-55
2022/05/04 12:22:53;;;;;;;0.95;0.68;;;;;;;;;;5028631;28;20442;-56
2022/05/04 12:25:18;;;;;;;;;;;;;;;;;;5026577;28;20033;-56
2022/05/04 12:27:43;;;;;;;1.10;1.10;;;;;;;;;;5029168;28;19908;-57
2022/05/04 12:33:08;;;;;;;0.08;0.08;;;;;;;;;;5027713;28;20051;-56
2022/05/04 12:35:42;;;;;;;1.35;0.47;;;;;;;;;;5027745;28;20450;-53
2022/05/04 12:38:07;;;;;;;0.00;0.00;;;;;;;;;;5028773;28;20037;-56
2022/05/04 12:40:33;;;;;;;0.00;0.00;;;;;;;;;;5028987;28;20401;-56
2022/05/04 12:43:03;;;;;;;0.00;0.00;;;;;;;;;;5027127;28;20028;-55
2022/05/04 12:45:28;;;;;;;;;;;;;;;;;;5029372;28;20034;-53
2022/05/04 12:47:54;;;;;;;0.00;0.00;;;;;;;;;;5028392;28;19920;-55
2022/05/04 12:50:20;;;;;;;0.00;0.00;;;;;;;;;;5030140;28;20268;-57
2022/05/04 12:52:46;;;;;;;0.10;0.10;;;;;;;;;;5032234;28;20077;-56
2022/05/04 12:55:11;;;;;;;6.70;6.40;;;;;;;;;;5033101;28;20081;-55
2022/05/04 12:57:37;;;;;;;0.00;0.00;;;;;;;;;;5032553;28;20056;-56
2022/05/04 13:00:02;;;;;;;0.73;0.73;;;;;;;;;;5033215;28;20032;-57
2022/05/04 13:02:27;;;;;;;4.35;2.33;;;;;;;;;;5032312;28;20104;-55
2022/05/04 13:04:52;;;;;;;4.03;1.40;;;;;;;;;;5032506;28;20036;-54
2022/05/04 13:07:18;;;;;;;1.70;1.70;;;;;;;;;;5032289;28;20112;-54
2022/05/04 13:09:43;;;;;;;2.13;1.10;;;;;;;;;;5031896;28;20018;-56
2022/05/04 13:12:11;;;;;;;1.77;1.13;;;;;;;;;;5031503;28;20022;-53
2022/05/04 13:14:38;;;;;;;0.00;0.00;;;;;;;;;;5031562;28;20022;-56
2022/05/04 13:17:03;;;;;;;1.65;1.55;;;;;;;;;;5033594;28;20025;-57
2022/05/04 13:19:29;;;;;;;0.63;0.50;;;;;;;;;;5031316;28;20109;-55
2022/05/04 13:21:54;;;;;;;1.05;0.40;;;;;;;;;;5031056;28;20128;-56
2022/05/04 13:24:19;;;;;;;1.80;1.45;;;;;;;;;;5030385;28;20083;-53
2022/05/04 13:26:44;;;;;;;0.40;0.40;;;;;;;;;;5032272;28;20069;-56
2022/05/04 13:29:09;;;;;;;0.77;0.77;;;;;;;;;;5030723;28;20315;-55
2022/05/04 13:31:37;;;;;;;1.52;1.30;;;;;;;;;;5030603;28;20013;-55
2022/05/04 13:34:02;;;;;;;2.33;2.00;;;;;;;;;;5027944;28;20063;-56
2022/05/04 13:36:28;;;;;;;0.22;0.22;;;;;;;;;;5032197;28;20013;-54
2022/05/04 13:38:53;;;;;;;0.00;0.00;;;;;;;;;;5029477;28;20025;-55
2022/05/04 13:41:18;;;;;;;0.43;0.43;;;;;;;;;;5029789;28;20040;-55
2022/05/04 13:43:43;;;;;;;0.75;0.68;;;;;;;;;;5014140;28;20041;-53
2022/05/04 13:46:09;;;;;;;0.98;0.98;;;;;;;;;;5030811;28;20036;-56
2022/05/04 13:48:35;;;;;;;0.43;0.43;;;;;;;;;;5031179;28;20101;-55
2022/05/04 13:53:45;;;;;;;0.95;0.95;;;;;;;;;;5031302;28;20427;-58
2022/05/04 13:56:10;;;;;;;0.77;0.77;;;;;;;;;;5031481;28;20040;-56
2022/05/04 13:58:35;;;;;;;0.00;0.00;;;;;;;;;;5031220;28;20033;-54
2022/05/04 14:01:01;;;;;;;0.15;0.15;;;;;;;;;;5030823;28;20060;-57
2022/05/04 14:03:26;;;;;;;0.22;0.08;;;;;;;;;;5030890;28;20167;-56
2022/05/04 14:05:52;;;;;;;1.23;1.13;;;;;;;;;;5028660;28;20087;-55
2022/05/04 14:08:17;;;;;;;0.00;0.00;;;;;;;;;;5029626;28;20022;-55
2022/05/04 14:10:50;;;;;;;0.30;0.20;;;;;;;;;;5029964;28;20022;-56
2022/05/04 14:13:24;;;;;;;2.35;1.05;;;;;;;;;;5029727;28;20383;-54
2022/05/04 14:15:50;;;;;;;0.00;0.00;;;;;;;;;;5013629;28;20021;-55
2022/05/04 14:18:15;;;;;;;0.90;0.17;;;;;;;;;;5031176;28;20052;-54
2022/05/04 14:20:43;;;;;;;0.10;0.10;;;;;;;;;;5030934;28;20313;-52
2022/05/04 14:23:08;;;;;;;0.00;0.00;;;;;;;;;;5029957;28;20087;-51
2022/05/04 14:25:34;;;;;;;0.00;0.00;;;;;;;;;;5028289;28;20501;-54
2022/05/04 14:28:00;;;;;;;0.00;0.00;;;;;;;;;;5030808;28;20021;-56
2022/05/04 14:30:26;;;;;;;1.05;0.98;;;;;;;;;;5014574;28;20021;-55
2022/05/04 14:32:51;;;;;;;0.77;0.50;;;;;;;;;;5028122;28;20079;-55
2022/05/04 14:35:17;;;;;;;0.00;0.00;;;;;;;;;;5030870;28;20053;-55
2022/05/04 14:37:42;;;;;;;0.10;0.10;;;;;;;;;;5028824;28;20048;-55
2022/05/04 14:40:07;;;;;;;0.45;0.45;;;;;;;;;;5031132;28;20013;-55
2022/05/04 14:42:32;;;;;;;0.93;0.82;;;;;;;;;;5029736;28;20017;-55
2022/05/04 14:44:58;;;;;;;0.30;0.30;;;;;;;;;;5030703;28;20482;-55
2022/05/04 14:47:23;;;;;;;1.63;1.52;;;;;;;;;;5030256;28;20045;-54
2022/05/04 14:49:48;;;;;;;0.00;0.00;;;;;;;;;;5030334;28;20026;-54
2022/05/04 14:52:14;;;;;;;0.00;0.00;;;;;;;;;;5028922;28;20501;-55
2022/05/04 14:54:39;;;;;;;0.00;0.00;;;;;;;;;;5031057;28;20025;-51
2022/05/04 14:57:04;;;;;;;0.00;0.00;;;;;;;;;;5014576;28;20048;-57
2022/05/04 14:59:30;;;;;;;0.10;0.10;;;;;;;;;;5030162;28;20040;-56
2022/05/04 15:01:56;;;;;;;0.30;0.20;;;;;;;;;;5030217;28;20136;-53
2022/05/04 15:07:05;;;;;;;0.82;0.82;;;;;;;;;;5029093;28;20390;-54
2022/05/04 15:09:31;;;;;;;0.10;0.10;;;;;;;;;;5030847;28;20025;-54
2022/05/04 15:11:57;;;;;;;0.00;0.00;;;;;;;;;;5028615;28;20024;-55
2022/05/04 15:14:22;;;;;;;1.25;1.25;;;;;;;;;;5030102;28;20030;-55
2022/05/04 15:16:50;;;;;;;0.52;0.52;;;;;;;;;;5029769;28;20025;-54